Aylmer, North Dakota
Current Conditions -  °F | °C
As of 12:15 PM on Friday 28 Nov 2014 (Local Time) from K5H4 Reporting Station
Overcast Overcast  
Wind Chill: -6°   Ceiling: 600
Heat Index: 10°   Visibility: 9mi
Dew Point:   Wind: 15mph
Humidity: 85%   Direction: 130°SE
Pressure: 29.75"   Gusts: NA
Location:  47.8487°N, 100.262°W
Report Text: K5H4 281815Z AUTO 13013KT 9SM OVC006 M12/M14 A2975 RMK AO2
Loading
Personal Weather Stations






























Interactive Weather Map New forecast layout! Learn more

10-Day Weather Forecast

Advertisements
Track Severe Weather on mobile